sensor_id;sensor_type;location;lat;lon;timestamp;pressure;altitude;pressure_sealevel;temperature;humidity
32873;BME280;19224;52.462;16.898;2023-02-03T00:01:44;100940.30;;;0.61;100.00
32873;BME280;19224;52.462;16.898;2023-02-03T00:04:15;100930.14;;;0.59;100.00
32873;BME280;19224;52.462;16.898;2023-02-03T00:06:45;100933.67;;;0.58;100.00
32873;BME280;19224;52.462;16.898;2023-02-03T00:09:17;100927.01;;;0.55;100.00
32873;BME280;19224;52.462;16.898;2023-02-03T00:11:48;100928.34;;;0.55;100.00
32873;BME280;19224;52.462;16.898;2023-02-03T00:14:18;100934.08;;;0.53;100.00
32873;BME280;19224;52.462;16.898;2023-02-03T00:16:49;100932.31;;;0.55;100.00
32873;BME280;19224;52.462;16.898;2023-02-03T00:19:25;100923.47;;;0.53;100.00
32873;BME280;19224;52.462;16.898;2023-02-03T00:21:56;100922.59;;;0.54;100.00
32873;BME280;19224;52.462;16.898;2023-02-03T00:24:27;100927.01;;;0.55;100.00
32873;BME280;19224;52.462;16.898;2023-02-03T00:26:58;100917.28;;;0.51;100.00
32873;BME280;19224;52.462;16.898;2023-02-03T00:29:29;100910.22;;;0.47;100.00
32873;BME280;19224;52.462;16.898;2023-02-03T00:31:59;100913.76;;;0.52;100.00
32873;BME280;19224;52.462;16.898;2023-02-03T00:34:31;100908.45;;;0.52;100.00
32873;BME280;19224;52.462;16.898;2023-02-03T00:37:01;100901.87;;;0.58;100.00
32873;BME280;19224;52.462;16.898;2023-02-03T00:39:31;100906.73;;;0.57;100.00
32873;BME280;19224;52.462;16.898;2023-02-03T00:42:05;100896.16;;;0.61;100.00
32873;BME280;19224;52.462;16.898;2023-02-03T00:44:35;100893.05;;;0.62;100.00
32873;BME280;19224;52.462;16.898;2023-02-03T00:47:06;100890.42;;;0.63;100.00
32873;BME280;19224;52.462;16.898;2023-02-03T00:49:36;100881.57;;;0.63;100.00
32873;BME280;19224;52.462;16.898;2023-02-03T00:52:07;100874.95;;;0.60;100.00
32873;BME280;19224;52.462;16.898;2023-02-03T00:54:37;100870.09;;;0.61;100.00
32873;BME280;19224;52.462;16.898;2023-02-03T00:57:12;100861.70;;;0.66;100.00
32873;BME280;19224;52.462;16.898;2023-02-03T00:59:42;100862.17;;;0.67;100.00
32873;BME280;19224;52.462;16.898;2023-02-03T01:02:13;100847.60;;;0.70;100.00
32873;BME280;19224;52.462;16.898;2023-02-03T01:04:45;100846.73;;;0.75;100.00
32873;BME280;19224;52.462;16.898;2023-02-03T01:07:16;100848.05;;;0.77;100.00
32873;BME280;19224;52.462;16.898;2023-02-03T01:09:49;100840.09;;;0.77;100.00
32873;BME280;19224;52.462;16.898;2023-02-03T01:12:20;100831.73;;;0.79;100.00
32873;BME280;19224;52.462;16.898;2023-02-03T01:14:51;100814.93;;;0.81;100.00
32873;BME280;19224;52.462;16.898;2023-02-03T01:17:22;100812.30;;;0.86;100.00
32873;BME280;19224;52.462;16.898;2023-02-03T01:19:53;100801.25;;;0.85;100.00
32873;BME280;19224;52.462;16.898;2023-02-03T01:22:23;100791.53;;;0.81;100.00
32873;BME280;19224;52.462;16.898;2023-02-03T01:24:54;100781.38;;;0.82;100.00
32873;BME280;19224;52.462;16.898;2023-02-03T01:27:25;100778.27;;;0.79;100.00
32873;BME280;19224;52.462;16.898;2023-02-03T01:29:56;100777.84;;;0.83;100.00
32873;BME280;19224;52.462;16.898;2023-02-03T01:32:28;100769.89;;;0.80;100.00
32873;BME280;19224;52.462;16.898;2023-02-03T01:34:58;100762.37;;;0.84;100.00
32873;BME280;19224;52.462;16.898;2023-02-03T01:37:29;100756.20;;;0.86;100.00
32873;BME280;19224;52.462;16.898;2023-02-03T01:40:00;100748.69;;;0.84;100.00
32873;BME280;19224;52.462;16.898;2023-02-03T01:42:32;100758.86;;;0.83;100.00
32873;BME280;19224;52.462;16.898;2023-02-03T01:45:05;100764.58;;;0.86;100.00
32873;BME280;19224;52.462;16.898;2023-02-03T01:47:54;100769.00;;;0.84;100.00
32873;BME280;19224;52.462;16.898;2023-02-03T01:50:31;100774.30;;;0.87;100.00
32873;BME280;19224;52.462;16.898;2023-02-03T01:53:10;100782.27;;;0.88;100.00
32873;BME280;19224;52.462;16.898;2023-02-03T01:55:43;100788.45;;;0.90;100.00
32873;BME280;19224;52.462;16.898;2023-02-03T01:58:27;100779.63;;;0.93;100.00
32873;BME280;19224;52.462;16.898;2023-02-03T02:00:59;100775.64;;;0.93;100.00
32873;BME280;19224;52.462;16.898;2023-02-03T02:03:44;100775.63;;;0.94;100.00
32873;BME280;19224;52.462;16.898;2023-02-03T02:06:14;100775.21;;;0.96;100.00
32873;BME280;19224;52.462;16.898;2023-02-03T02:08:49;100765.48;;;0.94;100.00
32873;BME280;19224;52.462;16.898;2023-02-03T02:11:21;100761.94;;;0.95;100.00
32873;BME280;19224;52.462;16.898;2023-02-03T02:13:54;100761.04;;;0.94;100.00
32873;BME280;19224;52.462;16.898;2023-02-03T02:17:10;100746.47;;;0.88;100.00
32873;BME280;19224;52.462;16.898;2023-02-03T02:19:56;100735.42;;;0.86;100.00
32873;BME280;19224;52.462;16.898;2023-02-03T02:22:41;100722.17;;;0.87;100.00
32873;BME280;19224;52.462;16.898;2023-02-03T02:31:38;100700.95;;;0.77;100.00
32873;BME280;19224;52.462;16.898;2023-02-03T02:41:01;100671.80;;;0.62;100.00
32873;BME280;19224;52.462;16.898;2023-02-03T02:43:40;100658.56;;;0.56;100.00
32873;BME280;19224;52.462;16.898;2023-02-03T02:46:33;100649.27;;;0.54;100.00
32873;BME280;19224;52.462;16.898;2023-02-03T02:49:29;100654.13;;;0.56;100.00
32873;BME280;19224;52.462;16.898;2023-02-03T02:52:02;100658.09;;;0.52;100.00
32873;BME280;19224;52.462;16.898;2023-02-03T02:54:36;100658.09;;;0.55;100.00
32873;BME280;19224;52.462;16.898;2023-02-03T02:57:10;100655.44;;;0.55;100.00
32873;BME280;19224;52.462;16.898;2023-02-03T02:59:41;100649.28;;;0.59;100.00
32873;BME280;19224;52.462;16.898;2023-02-03T03:02:12;100653.27;;;0.56;100.00
32873;BME280;19224;52.462;16.898;2023-02-03T03:04:45;100643.09;;;0.60;100.00
32873;BME280;19224;52.462;16.898;2023-02-03T03:07:21;100644.85;;;0.64;100.00
32873;BME280;19224;52.462;16.898;2023-02-03T03:10:02;100642.21;;;0.73;100.00
32873;BME280;19224;52.462;16.898;2023-02-03T03:12:35;100639.56;;;0.77;100.00
32873;BME280;19224;52.462;16.898;2023-02-03T03:15:13;100628.95;;;0.77;100.00
32873;BME280;19224;52.462;16.898;2023-02-03T03:17:51;100612.62;;;0.81;100.00
32873;BME280;19224;52.462;16.898;2023-02-03T03:20:24;100602.87;;;0.86;100.00
32873;BME280;19224;52.462;16.898;2023-02-03T03:23:06;100601.97;;;0.94;100.00
32873;BME280;19224;52.462;16.898;2023-02-03T03:25:52;100594.03;;;0.96;100.00
32873;BME280;19224;52.462;16.898;2023-02-03T03:28:23;100589.15;;;1.00;100.00
32873;BME280;19224;52.462;16.898;2023-02-03T03:31:20;100589.59;;;1.02;100.00
32873;BME280;19224;52.462;16.898;2023-02-03T03:33:47;100586.07;;;1.06;100.00
32873;BME280;19224;52.462;16.898;2023-02-03T03:36:43;100582.05;;;1.11;100.00
32873;BME280;19224;52.462;16.898;2023-02-03T03:39:32;100574.57;;;1.12;100.00
32873;BME280;19224;52.462;16.898;2023-02-03T03:42:50;100576.30;;;1.14;100.00
32873;BME280;19224;52.462;16.898;2023-02-03T03:44:48;100564.38;;;1.16;100.00
32873;BME280;19224;52.462;16.898;2023-02-03T03:49:59;100554.23;;;1.14;100.00
32873;BME280;19224;52.462;16.898;2023-02-03T03:52:34;100552.45;;;1.17;100.00
32873;BME280;19224;52.462;16.898;2023-02-03T03:55:08;100546.25;;;1.17;100.00
32873;BME280;19224;52.462;16.898;2023-02-03T04:00:37;100535.14;;;1.31;100.00
32873;BME280;19224;52.462;16.898;2023-02-03T04:03:20;100529.44;;;1.24;100.00
32873;BME280;19224;52.462;16.898;2023-02-03T04:05:45;100531.16;;;1.31;100.00
32873;BME280;19224;52.462;16.898;2023-02-03T04:08:16;100532.07;;;1.27;100.00
32873;BME280;19224;52.462;16.898;2023-02-03T04:10:46;100518.83;;;1.24;100.00
32873;BME280;19224;52.462;16.898;2023-02-03T04:13:17;100516.16;;;1.28;100.00
32873;BME280;19224;52.462;16.898;2023-02-03T04:15:48;100508.64;;;1.28;100.00
32873;BME280;19224;52.462;16.898;2023-02-03T04:18:19;100502.88;;;1.30;100.00
32873;BME280;19224;52.462;16.898;2023-02-03T04:20:49;100497.11;;;1.33;100.00
32873;BME280;19224;52.462;16.898;2023-02-03T04:23:20;100495.79;;;1.33;100.00
32873;BME280;19224;52.462;16.898;2023-02-03T04:25:50;100493.12;;;1.38;100.00
32873;BME280;19224;52.462;16.898;2023-02-03T04:28:20;100489.14;;;1.39;100.00
32873;BME280;19224;52.462;16.898;2023-02-03T04:30:51;100484.67;;;1.43;100.00
32873;BME280;19224;52.462;16.898;2023-02-03T04:33:21;100478.50;;;1.42;100.00
32873;BME280;19224;52.462;16.898;2023-02-03T04:35:51;100472.33;;;1.39;100.00
32873;BME280;19224;52.462;16.898;2023-02-03T04:38:22;100469.22;;;1.41;100.00
32873;BME280;19224;52.462;16.898;2023-02-03T04:40:52;100463.02;;;1.42;100.00
32873;BME280;19224;52.462;16.898;2023-02-03T04:43:22;100448.88;;;1.40;100.00
32873;BME280;19224;52.462;16.898;2023-02-03T04:45:53;100446.69;;;1.38;100.00
32873;BME280;19224;52.462;16.898;2023-02-03T04:48:23;100439.17;;;1.39;100.00
32873;BME280;19224;52.462;16.898;2023-02-03T04:50:53;100432.94;;;1.43;100.00
32873;BME280;19224;52.462;16.898;2023-02-03T04:53:24;100425.01;;;1.41;100.00
32873;BME280;19224;52.462;16.898;2023-02-03T04:55:54;100419.67;;;1.43;100.00
32873;BME280;19224;52.462;16.898;2023-02-03T04:58:25;100414.38;;;1.46;100.00
32873;BME280;19224;52.462;16.898;2023-02-03T05:00:56;100410.36;;;1.49;100.00
32873;BME280;19224;52.462;16.898;2023-02-03T05:03:27;100403.73;;;1.49;100.00
32873;BME280;19224;52.462;16.898;2023-02-03T05:05:57;100398.83;;;1.53;100.00
32873;BME280;19224;52.462;16.898;2023-02-03T05:08:28;100393.05;;;1.55;100.00
32873;BME280;19224;52.462;16.898;2023-02-03T05:10:58;100382.87;;;1.59;100.00
32873;BME280;19224;52.462;16.898;2023-02-03T05:13:29;100392.63;;;1.54;100.00
32873;BME280;19224;52.462;16.898;2023-02-03T05:15:59;100386.02;;;1.52;100.00
32873;BME280;19224;52.462;16.898;2023-02-03T05:18:30;100385.56;;;1.56;100.00
32873;BME280;19224;52.462;16.898;2023-02-03T05:21:00;100374.94;;;1.53;100.00
32873;BME280;19224;52.462;16.898;2023-02-03T05:23:31;100361.67;;;1.56;100.00
32873;BME280;19224;52.462;16.898;2023-02-03T05:26:01;100362.54;;;1.58;100.00
32873;BME280;19224;52.462;16.898;2023-02-03T05:28:31;100354.15;;;1.57;100.00
32873;BME280;19224;52.462;16.898;2023-02-03T05:31:03;100348.41;;;1.56;100.00
32873;BME280;19224;52.462;16.898;2023-02-03T05:33:34;100345.29;;;1.56;100.00
32873;BME280;19224;52.462;16.898;2023-02-03T05:36:05;100342.67;;;1.52;100.00
32873;BME280;19224;52.462;16.898;2023-02-03T05:38:35;100339.59;;;1.51;100.00
32873;BME280;19224;52.462;16.898;2023-02-03T05:41:06;100332.52;;;1.51;100.00
32873;BME280;19224;52.462;16.898;2023-02-03T05:43:56;100321.91;;;1.51;100.00
32873;BME280;19224;52.462;16.898;2023-02-03T05:46:27;100311.27;;;1.53;100.00
32873;BME280;19224;52.462;16.898;2023-02-03T05:48:57;100305.95;;;1.56;100.00
32873;BME280;19224;52.462;16.898;2023-02-03T05:51:29;100306.30;;;1.64;100.00
32873;BME280;19224;52.462;16.898;2023-02-03T05:54:00;100305.41;;;1.67;100.00
32873;BME280;19224;52.462;16.898;2023-02-03T05:56:34;100302.29;;;1.69;100.00
32873;BME280;19224;52.462;16.898;2023-02-03T05:59:05;100298.27;;;1.72;100.00
32873;BME280;19224;52.462;16.898;2023-02-03T06:01:37;100291.16;;;1.75;100.00
32873;BME280;19224;52.462;16.898;2023-02-03T06:04:07;100286.75;;;1.74;100.00
32873;BME280;19224;52.462;16.898;2023-02-03T06:06:39;100280.08;;;1.77;100.00
32873;BME280;19224;52.462;16.898;2023-02-03T06:09:10;100279.65;;;1.76;100.00
32873;BME280;19224;52.462;16.898;2023-02-03T06:11:43;100279.17;;;1.80;100.00
32873;BME280;19224;52.462;16.898;2023-02-03T06:14:14;100280.45;;;1.84;100.00
32873;BME280;19224;52.462;16.898;2023-02-03T06:16:45;100281.79;;;1.83;100.00
32873;BME280;19224;52.462;16.898;2023-02-03T06:19:15;100278.19;;;1.88;100.00
32873;BME280;19224;52.462;16.898;2023-02-03T06:21:46;100270.65;;;1.91;100.00
32873;BME280;19224;52.462;16.898;2023-02-03T06:24:16;100260.84;;;1.94;100.00
32873;BME280;19224;52.462;16.898;2023-02-03T06:26:47;100261.27;;;1.97;100.00
32873;BME280;19224;52.462;16.898;2023-02-03T06:29:18;100242.22;;;1.99;100.00
32873;BME280;19224;52.462;16.898;2023-02-03T06:31:49;100236.84;;;2.05;100.00
32873;BME280;19224;52.462;16.898;2023-02-03T06:34:19;100224.85;;;2.08;100.00
32873;BME280;19224;52.462;16.898;2023-02-03T06:36:50;100222.66;;;2.07;100.00
32873;BME280;19224;52.462;16.898;2023-02-03T06:39:21;100216.41;;;2.10;100.00
32873;BME280;19224;52.462;16.898;2023-02-03T06:41:51;100200.03;;;2.12;100.00
32873;BME280;19224;52.462;16.898;2023-02-03T06:44:23;100193.77;;;2.16;100.00
32873;BME280;19224;52.462;16.898;2023-02-03T06:46:55;100189.27;;;2.21;100.00
32873;BME280;19224;52.462;16.898;2023-02-03T06:49:30;100179.53;;;2.21;100.00
32873;BME280;19224;52.462;16.898;2023-02-03T06:52:00;100165.34;;;2.24;100.00
32873;BME280;19224;52.462;16.898;2023-02-03T06:54:30;100152.43;;;2.28;100.00
32873;BME280;19224;52.462;16.898;2023-02-03T06:57:01;100154.19;;;2.28;100.00
32873;BME280;19224;52.462;16.898;2023-02-03T06:59:32;100142.64;;;2.31;100.00
32873;BME280;19224;52.462;16.898;2023-02-03T07:02:02;100132.88;;;2.33;100.00
32873;BME280;19224;52.462;16.898;2023-02-03T07:04:33;100130.59;;;2.37;100.00
32873;BME280;19224;52.462;16.898;2023-02-03T07:07:03;100117.83;;;2.33;100.00
32873;BME280;19224;52.462;16.898;2023-02-03T07:09:34;100107.27;;;2.29;100.00
32873;BME280;19224;52.462;16.898;2023-02-03T07:12:05;100100.55;;;2.33;100.00
32873;BME280;19224;52.462;16.898;2023-02-03T07:14:36;100096.52;;;2.36;100.00
32873;BME280;19224;52.462;16.898;2023-02-03T07:17:07;100088.55;;;2.36;100.00
32873;BME280;19224;52.462;16.898;2023-02-03T07:19:37;100073.45;;;2.38;100.00
32873;BME280;19224;52.462;16.898;2023-02-03T07:22:10;100065.41;;;2.43;100.00
32873;BME280;19224;52.462;16.898;2023-02-03T07:24:41;100056.88;;;2.49;100.00
32873;BME280;19224;52.462;16.898;2023-02-03T07:27:11;100048.50;;;2.47;100.00
32873;BME280;19224;52.462;16.898;2023-02-03T07:29:41;100034.72;;;2.50;100.00
32873;BME280;19224;52.462;16.898;2023-02-03T07:32:12;100026.33;;;2.49;100.00
32873;BME280;19224;52.462;16.898;2023-02-03T07:34:42;100024.09;;;2.50;100.00
32873;BME280;19224;52.462;16.898;2023-02-03T07:37:15;100013.03;;;2.49;100.00
32873;BME280;19224;52.462;16.898;2023-02-03T07:39:45;100013.81;;;2.54;100.00
32873;BME280;19224;52.462;16.898;2023-02-03T07:42:16;100009.39;;;2.55;100.00
32873;BME280;19224;52.462;16.898;2023-02-03T07:44:46;100001.92;;;2.51;100.00
32873;BME280;19224;52.462;16.898;2023-02-03T07:47:18;99996.19;;;2.50;100.00
32873;BME280;19224;52.462;16.898;2023-02-03T07:49:49;99993.94;;;2.53;100.00
32873;BME280;19224;52.462;16.898;2023-02-03T07:52:21;99974.84;;;2.55;100.00
32873;BME280;19224;52.462;16.898;2023-02-03T07:54:52;99966.89;;;2.53;100.00
32873;BME280;19224;52.462;16.898;2023-02-03T07:57:23;99957.16;;;2.52;100.00
32873;BME280;19224;52.462;16.898;2023-02-03T07:59:53;99944.30;;;2.53;100.00
32873;BME280;19224;52.462;16.898;2023-02-03T08:02:23;99940.70;;;2.57;100.00
32873;BME280;19224;52.462;16.898;2023-02-03T08:04:54;99934.55;;;2.55;100.00
32873;BME280;19224;52.462;16.898;2023-02-03T08:07:26;99925.11;;;2.61;100.00
32873;BME280;19224;52.462;16.898;2023-02-03T08:09:56;99918.11;;;2.57;100.00
32873;BME280;19224;52.462;16.898;2023-02-03T08:12:28;99913.97;;;2.65;100.00
32873;BME280;19224;52.462;16.898;2023-02-03T08:14:58;99899.28;;;2.68;100.00
32873;BME280;19224;52.462;16.898;2023-02-03T08:17:29;99893.53;;;2.68;100.00
32873;BME280;19224;52.462;16.898;2023-02-03T08:19:59;99897.09;;;2.67;100.00
32873;BME280;19224;52.462;16.898;2023-02-03T08:22:30;99889.98;;;2.68;100.00
32873;BME280;19224;52.462;16.898;2023-02-03T08:25:01;99883.31;;;2.69;100.00
32873;BME280;19224;52.462;16.898;2023-02-03T08:27:32;99876.25;;;2.68;100.00
32873;BME280;19224;52.462;16.898;2023-02-03T08:30:04;99864.71;;;2.69;100.00
32873;BME280;19224;52.462;16.898;2023-02-03T08:32:35;99855.02;;;2.65;100.00
32873;BME280;19224;52.462;16.898;2023-02-03T08:35:06;99852.77;;;2.68;100.00
32873;BME280;19224;52.462;16.898;2023-02-03T08:37:36;99832.76;;;2.71;100.00
32873;BME280;19224;52.462;16.898;2023-02-03T08:40:09;99826.00;;;2.77;100.00
32873;BME280;19224;52.462;16.898;2023-02-03T08:42:39;99814.89;;;3.53;100.00
32873;BME280;19224;52.462;16.898;2023-02-03T08:45:10;99811.56;;;3.45;100.00
32873;BME280;19224;52.462;16.898;2023-02-03T08:47:41;99804.09;;;3.24;100.00
32873;BME280;19224;52.462;16.898;2023-02-03T08:50:12;99807.45;;;3.13;100.00
32873;BME280;19224;52.462;16.898;2023-02-03T08:52:43;99796.52;;;3.06;100.00
32873;BME280;19224;52.462;16.898;2023-02-03T08:55:13;99778.48;;;3.01;100.00
32873;BME280;19224;52.462;16.898;2023-02-03T08:57:44;99773.70;;;2.96;100.00
32873;BME280;19224;52.462;16.898;2023-02-03T09:00:15;99771.54;;;2.94;100.00
32873;BME280;19224;52.462;16.898;2023-02-03T09:02:46;99759.66;;;2.91;100.00
32873;BME280;19224;52.462;16.898;2023-02-03T09:05:17;99747.30;;;2.89;100.00
32873;BME280;19224;52.462;16.898;2023-02-03T09:07:48;99741.04;;;2.91;100.00
32873;BME280;19224;52.462;16.898;2023-02-03T09:10:19;99745.98;;;2.87;100.00
32873;BME280;19224;52.462;16.898;2023-02-03T09:12:50;99735.30;;;2.90;100.00
32873;BME280;19224;52.462;16.898;2023-02-03T09:15:21;99739.23;;;2.92;100.00
32873;BME280;19224;52.462;16.898;2023-02-03T09:17:51;99724.17;;;2.92;100.00
32873;BME280;19224;52.462;16.898;2023-02-03T09:20:23;99723.36;;;2.89;100.00
32873;BME280;19224;52.462;16.898;2023-02-03T09:22:54;99709.16;;;2.90;100.00
32873;BME280;19224;52.462;16.898;2023-02-03T09:25:27;99688.80;;;2.89;100.00
32873;BME280;19224;52.462;16.898;2023-02-03T09:28:00;99676.86;;;2.87;100.00
32873;BME280;19224;52.462;16.898;2023-02-03T09:30:31;99670.21;;;2.87;100.00
32873;BME280;19224;52.462;16.898;2023-02-03T09:33:01;99665.67;;;2.92;100.00
32873;BME280;19224;52.462;16.898;2023-02-03T09:35:32;99653.41;;;2.87;100.00
32873;BME280;19224;52.462;16.898;2023-02-03T09:38:03;99640.02;;;2.90;100.00
32873;BME280;19224;52.462;16.898;2023-02-03T09:40:35;99621.33;;;2.93;100.00
32873;BME280;19224;52.462;16.898;2023-02-03T09:43:36;99613.66;;;2.98;100.00
32873;BME280;19224;52.462;16.898;2023-02-03T09:46:16;99593.66;;;3.01;100.00
32873;BME280;19224;52.462;16.898;2023-02-03T09:48:52;99593.56;;;3.04;100.00
32873;BME280;19224;52.462;16.898;2023-02-03T09:51:31;99590.41;;;3.06;100.00
32873;BME280;19224;52.462;16.898;2023-02-03T09:54:20;99586.83;;;3.07;100.00
32873;BME280;19224;52.462;16.898;2023-02-03T09:56:52;99571.38;;;3.05;100.00
32873;BME280;19224;52.462;16.898;2023-02-03T09:59:24;99553.70;;;3.03;100.00
32873;BME280;19224;52.462;16.898;2023-02-03T10:02:03;99544.87;;;3.02;100.00
32873;BME280;19224;52.462;16.898;2023-02-03T10:04:49;99529.42;;;3.00;100.00
32873;BME280;19224;52.462;16.898;2023-02-03T10:07:30;99517.45;;;3.00;100.00
32873;BME280;19224;52.462;16.898;2023-02-03T10:10:40;99507.58;;;3.04;100.00
32873;BME280;19224;52.462;16.898;2023-02-03T10:15:48;99483.00;;;2.96;100.00
32873;BME280;19224;52.462;16.898;2023-02-03T10:18:23;99467.58;;;2.92;100.00
32873;BME280;19224;52.462;16.898;2023-02-03T10:21:01;99468.53;;;2.90;100.00
32873;BME280;19224;52.462;16.898;2023-02-03T10:23:35;99442.42;;;2.89;100.00
32873;BME280;19224;52.462;16.898;2023-02-03T10:26:14;99431.78;;;2.89;100.00
32873;BME280;19224;52.462;16.898;2023-02-03T10:29:04;99424.63;;;2.91;100.00
32873;BME280;19224;52.462;16.898;2023-02-03T10:31:21;99416.15;;;2.93;100.00
32873;BME280;19224;52.462;16.898;2023-02-03T10:33:59;99398.90;;;2.92;100.00
32873;BME280;19224;52.462;16.898;2023-02-03T10:37:55;99399.17;;;2.97;100.00
32873;BME280;19224;52.462;16.898;2023-02-03T10:39:49;99388.38;;;3.03;100.00
32873;BME280;19224;52.462;16.898;2023-02-03T10:42:21;99369.16;;;3.08;100.00
32873;BME280;19224;52.462;16.898;2023-02-03T10:44:59;99365.41;;;3.15;100.00
32873;BME280;19224;52.462;16.898;2023-02-03T10:47:36;99356.51;;;3.16;100.00
32873;BME280;19224;52.462;16.898;2023-02-03T10:50:19;99345.59;;;3.25;100.00
32873;BME280;19224;52.462;16.898;2023-02-03T10:52:50;99326.87;;;3.28;100.00
32873;BME280;19224;52.462;16.898;2023-02-03T10:55:30;99325.36;;;3.34;100.00
32873;BME280;19224;52.462;16.898;2023-02-03T10:58:05;99315.05;;;3.37;100.00
32873;BME280;19224;52.462;16.898;2023-02-03T11:00:35;99308.66;;;3.42;100.00
32873;BME280;19224;52.462;16.898;2023-02-03T11:03:26;99300.61;;;3.45;100.00
32873;BME280;19224;52.462;16.898;2023-02-03T11:06:13;99291.59;;;3.49;100.00
32873;BME280;19224;52.462;16.898;2023-02-03T11:08:47;99284.80;;;3.54;100.00
32873;BME280;19224;52.462;16.898;2023-02-03T11:11:28;99261.21;;;3.56;100.00
32873;BME280;19224;52.462;16.898;2023-02-03T11:16:38;99262.84;;;3.60;100.00
32873;BME280;19224;52.462;16.898;2023-02-03T11:19:20;99256.30;;;3.57;100.00
32873;BME280;19224;52.462;16.898;2023-02-03T11:21:53;99240.09;;;3.63;100.00
32873;BME280;19224;52.462;16.898;2023-02-03T11:24:36;99225.34;;;3.66;100.00
32873;BME280;19224;52.462;16.898;2023-02-03T11:27:09;99225.30;;;3.68;100.00
32873;BME280;19224;52.462;16.898;2023-02-03T11:29:48;99211.43;;;3.71;100.00
32873;BME280;19224;52.462;16.898;2023-02-03T11:32:29;99203.33;;;3.74;100.00
32873;BME280;19224;52.462;16.898;2023-02-03T11:37:50;99191.15;;;3.80;100.00
32873;BME280;19224;52.462;16.898;2023-02-03T11:40:31;99178.64;;;3.82;100.00
32873;BME280;19224;52.462;16.898;2023-02-03T11:43:17;99177.20;;;3.85;100.00
32873;BME280;19224;52.462;16.898;2023-02-03T11:45:50;99177.39;;;3.92;100.00
32873;BME280;19224;52.462;16.898;2023-02-03T11:48:28;99172.34;;;3.96;100.00
32873;BME280;19224;52.462;16.898;2023-02-03T11:51:28;99165.55;;;4.12;100.00
32873;BME280;19224;52.462;16.898;2023-02-03T11:54:10;99156.23;;;4.12;100.00
32873;BME280;19224;52.462;16.898;2023-02-03T12:03:17;99153.73;;;4.31;100.00
32873;BME280;19224;52.462;16.898;2023-02-03T12:06:09;99148.23;;;4.35;100.00
32873;BME280;19224;52.462;16.898;2023-02-03T12:09:01;99147.77;;;4.47;100.00
32873;BME280;19224;52.462;16.898;2023-02-03T12:12:17;99138.30;;;4.50;100.00
32873;BME280;19224;52.462;16.898;2023-02-03T12:18:10;99139.95;;;4.75;100.00
32873;BME280;19224;52.462;16.898;2023-02-03T12:23:59;99135.31;;;5.22;100.00
32873;BME280;19224;52.462;16.898;2023-02-03T12:29:33;99116.80;;;5.49;100.00
32873;BME280;19224;52.462;16.898;2023-02-03T12:32:28;99122.15;;;5.69;100.00
32873;BME280;19224;52.462;16.898;2023-02-03T12:35:16;99114.79;;;5.74;100.00
32873;BME280;19224;52.462;16.898;2023-02-03T12:38:30;99108.48;;;5.86;100.00
32873;BME280;19224;52.462;16.898;2023-02-03T12:41:11;99102.62;;;6.07;100.00
32873;BME280;19224;52.462;16.898;2023-02-03T12:43:50;99101.48;;;6.31;100.00
32873;BME280;19224;52.462;16.898;2023-02-03T12:46:42;99108.39;;;6.16;100.00
32873;BME280;19224;52.462;16.898;2023-02-03T12:49:27;99111.53;;;6.26;100.00
32873;BME280;19224;52.462;16.898;2023-02-03T12:52:11;99110.06;;;6.19;100.00
32873;BME280;19224;52.462;16.898;2023-02-03T12:54:55;99121.91;;;6.13;100.00
32873;BME280;19224;52.462;16.898;2023-02-03T12:57:39;99141.30;;;6.18;100.00
32873;BME280;19224;52.462;16.898;2023-02-03T13:03:27;99124.97;;;6.43;100.00
32873;BME280;19224;52.462;16.898;2023-02-03T13:06:48;99132.71;;;6.49;100.00
32873;BME280;19224;52.462;16.898;2023-02-03T13:09:30;99130.61;;;6.55;100.00
32873;BME280;19224;52.462;16.898;2023-02-03T13:12:40;99141.19;;;6.48;100.00
32873;BME280;19224;52.462;16.898;2023-02-03T13:15:23;99142.41;;;6.51;100.00
32873;BME280;19224;52.462;16.898;2023-02-03T13:18:14;99143.98;;;6.37;100.00
32873;BME280;19224;52.462;16.898;2023-02-03T13:20:45;99146.28;;;6.26;100.00
32873;BME280;19224;52.462;16.898;2023-02-03T13:23:16;99149.11;;;6.23;100.00
32873;BME280;19224;52.462;16.898;2023-02-03T13:29:26;99147.34;;;6.22;100.00
32873;BME280;19224;52.462;16.898;2023-02-03T13:41:05;99187.81;;;6.33;100.00
32873;BME280;19224;52.462;16.898;2023-02-03T13:43:39;99171.52;;;6.39;100.00
32873;BME280;19224;52.462;16.898;2023-02-03T13:48:57;99191.92;;;6.31;100.00
32873;BME280;19224;52.462;16.898;2023-02-03T13:51:46;99238.02;;;6.26;100.00
32873;BME280;19224;52.462;16.898;2023-02-03T13:54:35;99212.57;;;6.28;100.00
32873;BME280;19224;52.462;16.898;2023-02-03T13:57:25;99201.09;;;6.16;100.00
32873;BME280;19224;52.462;16.898;2023-02-03T13:59:54;99217.39;;;6.10;100.00
32873;BME280;19224;52.462;16.898;2023-02-03T14:05:00;99200.16;;;5.97;100.00
32873;BME280;19224;52.462;16.898;2023-02-03T14:07:38;99199.77;;;5.96;100.00
32873;BME280;19224;52.462;16.898;2023-02-03T14:10:21;99208.57;;;5.98;100.00
32873;BME280;19224;52.462;16.898;2023-02-03T14:12:55;99218.06;;;5.95;100.00
32873;BME280;19224;52.462;16.898;2023-02-03T14:15:31;99209.99;;;5.86;100.00
32873;BME280;19224;52.462;16.898;2023-02-03T14:18:33;99207.47;;;5.83;100.00
32873;BME280;19224;52.462;16.898;2023-02-03T14:21:21;99232.05;;;5.70;100.00
32873;BME280;19224;52.462;16.898;2023-02-03T14:23:57;99212.41;;;5.61;100.00
32873;BME280;19224;52.462;16.898;2023-02-03T14:26:37;99226.16;;;5.62;100.00
32873;BME280;19224;52.462;16.898;2023-02-03T14:29:25;99226.83;;;5.57;100.00
32873;BME280;19224;52.462;16.898;2023-02-03T14:32:04;99227.47;;;5.52;100.00